Time;durP1;ratioP1;P1;durP2;ratioP2;P2;SDS_P1;SDS_P2;PMS_P1;PMS_P2;Temp;Humidity;BMP_temperature;BMP_pressure;BME280_temperature;BME280_humidity;BME280_pressure;Samples;Min_cycle;Max_cycle;Signal;HPM_P1;HPM_P2
2022/11/22 00:01:52;;;;;;;1.67;1.30;;;7.30;98.20;;;;;;5003608;28;20559;-74
2022/11/22 00:04:18;;;;;;;15.63;2.37;;;7.30;98.20;;;;;;5034309;28;21030;-74
2022/11/22 00:06:47;;;;;;;1.60;1.20;;;7.30;98.20;;;;;;5023211;28;20490;-74
2022/11/22 00:09:14;;;;;;;1.60;1.30;;;7.30;98.20;;;;;;5024012;28;20554;-76
2022/11/22 00:11:40;;;;;;;1.60;1.20;;;7.30;98.20;;;;;;5013872;28;20722;-76
2022/11/22 00:14:08;;;;;;;1.60;1.20;;;7.30;98.20;;;;;;5013329;28;20809;-76
2022/11/22 00:16:35;;;;;;;1.60;1.20;;;7.30;98.20;;;;;;5014528;28;20490;-76
2022/11/22 00:19:02;;;;;;;1.60;1.20;;;7.30;98.20;;;;;;5046054;28;20504;-76
2022/11/22 00:21:29;;;;;;;1.60;1.30;;;7.30;98.20;;;;;;5036545;28;20486;-76
2022/11/22 00:23:57;;;;;;;1.63;1.40;;;7.30;98.20;;;;;;5032635;28;20474;-75
2022/11/22 00:26:24;;;;;;;1.60;1.20;;;7.30;98.20;;;;;;5011952;28;20925;-75
2022/11/22 00:28:52;;;;;;;1.60;1.20;;;7.30;98.20;;;;;;5010833;28;20487;-76
2022/11/22 00:31:19;;;;;;;1.70;1.30;;;7.30;98.20;;;;;;5008426;28;20990;-74
2022/11/22 00:33:45;;;;;;;1.60;1.27;;;7.30;98.20;;;;;;5010609;28;20463;-76
2022/11/22 00:36:13;;;;;;;1.60;1.30;;;7.30;98.20;;;;;;5007974;28;20571;-74
2022/11/22 00:38:40;;;;;;;1.63;1.30;;;7.30;98.20;;;;;;5044773;28;20515;-76
2022/11/22 00:41:08;;;;;;;1.67;1.30;;;7.30;98.20;;;;;;5015445;28;20969;-73
2022/11/22 00:43:35;;;;;;;1.63;1.30;;;7.30;98.20;;;;;;5023327;28;20459;-73
2022/11/22 00:46:02;;;;;;;1.60;1.20;;;7.30;98.20;;;;;;5019995;28;20490;-76
2022/11/22 00:48:29;;;;;;;1.60;1.30;;;7.30;98.20;;;;;;5029044;28;20551;-74
2022/11/22 00:50:56;;;;;;;1.60;1.20;;;7.30;98.20;;;;;;4999591;28;20471;-75
2022/11/22 00:53:23;;;;;;;1.63;1.30;;;7.30;98.20;;;;;;5014488;28;20463;-75
2022/11/22 00:55:50;;;;;;;1.60;1.20;;;7.40;98.20;;;;;;5020294;28;20459;-75
2022/11/22 00:58:19;;;;;;;1.67;1.37;;;7.40;98.20;;;;;;5010077;28;20456;-75
2022/11/22 01:00:45;;;;;;;1.60;1.20;;;7.40;98.20;;;;;;5011843;28;20522;-76
2022/11/22 01:03:13;;;;;;;1.60;1.20;;;7.30;98.20;;;;;;4981358;28;20456;-76
2022/11/22 01:05:41;;;;;;;1.63;1.23;;;7.30;98.20;;;;;;5011561;28;20495;-74
2022/11/22 01:08:08;;;;;;;1.60;1.20;;;7.30;98.20;;;;;;5017817;28;20487;-73
2022/11/22 01:10:36;;;;;;;1.60;1.30;;;7.30;98.20;;;;;;5046257;28;20806;-74
2022/11/22 01:13:03;;;;;;;1.60;1.20;;;7.30;98.20;;;;;;5010759;28;20487;-73
2022/11/22 01:15:31;;;;;;;1.60;1.30;;;7.30;98.20;;;;;;5011094;28;20479;-73
2022/11/22 01:17:59;;;;;;;1.60;1.20;;;7.30;98.20;;;;;;5032421;28;20561;-73
2022/11/22 01:20:26;;;;;;;1.60;1.20;;;7.30;98.20;;;;;;5045625;28;20487;-73
2022/11/22 01:22:54;;;;;;;1.60;1.20;;;7.30;98.20;;;;;;5021018;28;20845;-73
2022/11/22 01:25:22;;;;;;;1.60;1.20;;;7.30;98.20;;;;;;5030421;28;20479;-73
2022/11/22 01:27:50;;;;;;;1.60;1.30;;;7.40;98.20;;;;;;5002239;28;21103;-73
2022/11/22 01:30:18;;;;;;;1.60;1.20;;;7.40;98.20;;;;;;5026862;28;20483;-73
2022/11/22 01:32:48;;;;;;;1.60;1.20;;;7.40;98.20;;;;;;5017409;28;20803;-74
2022/11/22 01:35:16;;;;;;;1.60;1.23;;;7.40;98.20;;;;;;5023654;28;20490;-73
2022/11/22 01:37:44;;;;;;;1.60;1.20;;;7.40;98.20;;;;;;5018820;28;20521;-73
2022/11/22 01:40:14;;;;;;;1.60;1.30;;;7.40;98.20;;;;;;5041231;28;20489;-73
2022/11/22 01:42:50;;;;;;;1.60;1.30;;;7.40;98.20;;;;;;5008477;28;20518;-74
2022/11/22 01:45:46;;;;;;;1.60;1.30;;;7.30;98.20;;;;;;5010879;28;20519;-74
2022/11/22 01:48:32;;;;;;;1.63;1.40;;;7.30;98.20;;;;;;5002554;28;20622;-73
2022/11/22 01:51:05;;;;;;;1.60;1.30;;;7.30;98.20;;;;;;5019042;28;20895;-74
2022/11/22 01:53:36;;;;;;;1.60;1.30;;;7.20;98.20;;;;;;5016959;28;20770;-74
2022/11/22 01:56:05;;;;;;;1.60;1.20;;;7.20;98.20;;;;;;5017416;28;20448;-73
2022/11/22 01:58:34;;;;;;;1.60;1.30;;;7.20;98.20;;;;;;5030147;28;20898;-74
2022/11/22 02:01:02;;;;;;;1.60;1.20;;;7.20;98.20;;;;;;5038167;28;20468;-74
2022/11/22 02:03:32;;;;;;;1.60;1.23;;;7.20;98.20;;;;;;5024127;28;20460;-74
2022/11/22 02:06:01;;;;;;;1.60;1.20;;;7.20;98.20;;;;;;5003099;28;20597;-73
2022/11/22 02:08:33;;;;;;;1.60;1.20;;;7.20;98.20;;;;;;5030412;28;20463;-73
2022/11/22 02:11:03;;;;;;;1.60;1.20;;;7.20;98.20;;;;;;5009629;28;20498;-73
2022/11/22 02:13:34;;;;;;;1.63;1.30;;;7.30;98.20;;;;;;5015296;28;20475;-74
2022/11/22 02:16:01;;;;;;;1.60;1.20;;;7.30;98.20;;;;;;5002641;28;20739;-74
2022/11/22 02:18:30;;;;;;;1.60;1.40;;;7.30;98.20;;;;;;5044313;28;20458;-73
2022/11/22 02:20:58;;;;;;;1.60;1.30;;;7.30;98.20;;;;;;5036929;28;20454;-74
2022/11/22 02:23:34;;;;;;;1.60;1.30;;;7.20;98.20;;;;;;5028444;28;20459;-73
2022/11/22 02:26:04;;;;;;;1.60;1.20;;;7.30;98.20;;;;;;5018634;28;20475;-76
2022/11/22 02:28:36;;;;;;;1.60;1.30;;;7.20;98.20;;;;;;5028227;28;20512;-76
2022/11/22 02:31:03;;;;;;;1.60;1.30;;;7.20;98.20;;;;;;4997610;28;20464;-75
2022/11/22 02:33:30;;;;;;;1.63;1.30;;;7.20;98.20;;;;;;4998119;28;20482;-75
2022/11/22 02:36:00;;;;;;;2.07;1.60;;;7.20;98.20;;;;;;5016577;28;20456;-76
2022/11/22 02:38:32;;;;;;;1.60;1.20;;;7.10;98.20;;;;;;5017637;28;20937;-73
2022/11/22 02:41:02;;;;;;;1.63;1.30;;;7.10;98.20;;;;;;5004488;28;20474;-76
2022/11/22 02:43:33;;;;;;;1.63;1.33;;;7.10;98.20;;;;;;5024946;28;20475;-76
2022/11/22 02:46:04;;;;;;;1.60;1.20;;;7.00;98.20;;;;;;5015723;28;20489;-77
2022/11/22 02:48:36;;;;;;;1.60;1.23;;;7.00;98.20;;;;;;5009720;28;20468;-75
2022/11/22 02:51:03;;;;;;;1.60;1.20;;;6.90;98.20;;;;;;5000834;28;20467;-75
2022/11/22 02:53:31;;;;;;;1.60;1.20;;;6.90;98.20;;;;;;5026435;28;20459;-75
2022/11/22 02:55:59;;;;;;;1.60;1.30;;;6.90;98.20;;;;;;5017409;28;20455;-75
2022/11/22 02:58:29;;;;;;;1.67;1.30;;;6.80;98.20;;;;;;5008091;28;20885;-76
2022/11/22 03:00:56;;;;;;;1.70;1.33;;;6.80;98.20;;;;;;4999609;28;20486;-76
2022/11/22 03:03:24;;;;;;;1.60;1.30;;;6.80;98.20;;;;;;5029325;28;20478;-75
2022/11/22 03:05:53;;;;;;;1.63;1.30;;;6.80;98.20;;;;;;5019052;28;20509;-73
2022/11/22 03:08:19;;;;;;;1.60;1.30;;;6.80;98.20;;;;;;4992639;28;20522;-74
2022/11/22 03:10:46;;;;;;;1.60;1.20;;;6.70;98.20;;;;;;5030135;23;20531;-76
2022/11/22 03:13:13;;;;;;;1.70;1.30;;;6.70;98.20;;;;;;5000916;28;20483;-76
2022/11/22 03:15:41;;;;;;;1.60;1.30;;;6.70;98.20;;;;;;5023689;28;20455;-76
2022/11/22 03:18:08;;;;;;;1.60;1.30;;;6.70;98.20;;;;;;5034733;28;20489;-76
2022/11/22 03:20:36;;;;;;;1.60;1.30;;;6.70;98.20;;;;;;5048201;28;20475;-76
2022/11/22 03:23:02;;;;;;;1.60;1.30;;;6.70;98.20;;;;;;4998105;28;20485;-76
2022/11/22 03:25:29;;;;;;;1.60;1.33;;;6.60;98.20;;;;;;5014882;28;20487;-76
2022/11/22 03:27:56;;;;;;;1.60;1.27;;;6.60;98.20;;;;;;5018449;28;20848;-76
2022/11/22 03:30:23;;;;;;;1.67;1.30;;;6.60;98.20;;;;;;5050789;28;20481;-76
2022/11/22 03:32:51;;;;;;;1.63;1.40;;;6.60;98.20;;;;;;5006472;28;20488;-76
2022/11/22 03:35:17;;;;;;;1.63;1.30;;;6.60;98.20;;;;;;5012048;28;20562;-76
2022/11/22 03:37:44;;;;;;;1.60;1.27;;;6.50;98.20;;;;;;5015667;28;20519;-76
2022/11/22 03:40:11;;;;;;;1.70;1.40;;;6.50;98.20;;;;;;5051233;28;20482;-76
2022/11/22 03:42:38;;;;;;;1.63;1.30;;;6.50;98.20;;;;;;5010145;28;20496;-76
2022/11/22 03:45:06;;;;;;;1.60;1.30;;;6.50;98.20;;;;;;5011722;28;20460;-76
2022/11/22 03:47:33;;;;;;;1.60;1.20;;;6.40;98.20;;;;;;5028602;28;20485;-76
2022/11/22 03:50:01;;;;;;;1.60;1.30;;;6.40;98.20;;;;;;5051120;28;20861;-76
2022/11/22 03:52:28;;;;;;;1.60;1.30;;;6.40;98.20;;;;;;5012005;28;20528;-76
2022/11/22 03:54:55;;;;;;;1.60;1.30;;;6.30;98.20;;;;;;5017223;28;20487;-76
2022/11/22 03:57:21;;;;;;;1.70;1.30;;;6.30;98.20;;;;;;5012344;28;20487;-78
2022/11/22 03:59:48;;;;;;;1.70;1.30;;;6.30;98.20;;;;;;5047949;28;20802;-77
2022/11/22 04:02:15;;;;;;;1.60;1.40;;;6.30;98.20;;;;;;5014922;28;20490;-78
2022/11/22 04:04:42;;;;;;;1.60;1.30;;;6.30;98.20;;;;;;5010398;28;20475;-77
2022/11/22 04:07:10;;;;;;;1.63;1.40;;;6.30;98.20;;;;;;5007016;28;20533;-79
2022/11/22 04:09:37;;;;;;;1.70;1.40;;;6.20;98.20;;;;;;5023357;28;20831;-78
2022/11/22 04:12:04;;;;;;;1.60;1.30;;;6.20;98.20;;;;;;5009537;28;20503;-77
2022/11/22 04:17:39;;;;;;;1.60;1.27;;;6.20;98.20;;;;;;5002907;28;20530;-76
2022/11/22 04:22:45;;;;;;;1.70;1.40;;;6.20;98.20;;;;;;5003351;28;20963;-76
2022/11/22 04:25:15;;;;;;;1.60;1.30;;;6.20;98.20;;;;;;5016312;28;20464;-76
2022/11/22 04:27:41;;;;;;;1.60;1.30;;;6.10;98.20;;;;;;4993201;28;20475;-75
2022/11/22 04:30:08;;;;;;;1.63;1.30;;;6.10;98.20;;;;;;5018712;28;20494;-75
2022/11/22 04:32:46;;;;;;;1.60;1.40;;;6.10;98.20;;;;;;5006630;28;20479;-76
2022/11/22 04:35:14;;;;;;;1.70;1.30;;;6.10;98.20;;;;;;5017302;28;20544;-75
2022/11/22 04:37:42;;;;;;;1.63;1.20;;;6.10;98.20;;;;;;5006487;28;20471;-75
2022/11/22 04:40:11;;;;;;;1.60;1.30;;;6.10;98.20;;;;;;5016061;28;20766;-75
2022/11/22 04:45:23;;;;;;;1.67;1.30;;;6.10;98.20;;;;;;5015376;28;20447;-75
2022/11/22 04:48:01;;;;;;;1.60;1.20;;;6.10;98.20;;;;;;5011018;28;20487;-76
2022/11/22 04:53:14;;;;;;;1.60;1.30;;;6.10;98.20;;;;;;5009631;28;20577;-75
2022/11/22 04:55:44;;;;;;;1.67;1.40;;;6.20;98.20;;;;;;5011524;28;20459;-76
2022/11/22 04:58:12;;;;;;;1.70;1.40;;;6.20;98.20;;;;;;5010003;28;20488;-75
2022/11/22 05:00:39;;;;;;;1.60;1.30;;;6.20;98.20;;;;;;5013610;28;20507;-75
2022/11/22 05:03:06;;;;;;;1.70;1.40;;;6.20;98.20;;;;;;5000118;28;20483;-75
2022/11/22 05:05:35;;;;;;;1.60;1.20;;;6.20;98.20;;;;;;5016658;28;20488;-76
2022/11/22 05:08:02;;;;;;;1.63;1.30;;;6.20;98.20;;;;;;5013239;28;20479;-76
2022/11/22 05:10:55;;;;;;;1.60;1.30;;;6.20;98.20;;;;;;5012278;28;20847;-76
2022/11/22 05:13:17;;;;;;;1.60;1.30;;;6.10;98.20;;;;;;4983506;28;20476;-75
2022/11/22 05:15:44;;;;;;;1.60;1.30;;;6.10;98.20;;;;;;5022776;28;20463;-76
2022/11/22 05:18:11;;;;;;;1.60;1.30;;;6.10;98.20;;;;;;5005183;28;20484;-75
2022/11/22 05:20:38;;;;;;;1.60;1.30;;;6.10;98.20;;;;;;5024363;28;21013;-75
2022/11/22 05:25:50;;;;;;;1.67;1.40;;;6.10;98.20;;;;;;5003997;28;21002;-76
2022/11/22 05:28:18;;;;;;;1.60;1.30;;;6.00;98.20;;;;;;5016100;28;20808;-76
2022/11/22 05:30:44;;;;;;;1.60;1.30;;;6.00;98.20;;;;;;5017840;28;20479;-76
2022/11/22 05:33:11;;;;;;;1.70;1.40;;;6.00;98.20;;;;;;5008634;28;20487;-75
2022/11/22 05:35:38;;;;;;;1.63;1.30;;;6.00;98.20;;;;;;5009577;28;20850;-75
2022/11/22 05:38:05;;;;;;;1.60;1.40;;;5.90;98.20;;;;;;5001309;28;21032;-76
2022/11/22 05:40:32;;;;;;;1.63;1.30;;;5.90;98.20;;;;;;5012919;28;20479;-76
2022/11/22 05:42:59;;;;;;;1.67;1.30;;;5.90;98.20;;;;;;5003178;28;20483;-75
2022/11/22 05:45:27;;;;;;;1.70;1.40;;;5.90;98.20;;;;;;5011060;28;20467;-75
2022/11/22 05:47:53;;;;;;;1.60;1.30;;;5.80;98.20;;;;;;4994964;28;21294;-75
2022/11/22 05:50:20;;;;;;;1.63;1.40;;;5.80;98.20;;;;;;5010158;28;20633;-75
2022/11/22 05:52:47;;;;;;;1.63;1.30;;;5.80;98.20;;;;;;4996756;28;20487;-75
2022/11/22 05:55:14;;;;;;;1.60;1.30;;;5.80;98.20;;;;;;5014144;28;20489;-75
2022/11/22 05:57:41;;;;;;;1.63;1.30;;;5.80;98.20;;;;;;5002692;28;20566;-75
2022/11/22 06:00:09;;;;;;;1.70;1.40;;;5.80;98.20;;;;;;5014302;28;20515;-75
2022/11/22 06:02:37;;;;;;;1.60;1.30;;;5.80;98.20;;;;;;5000191;28;20996;-75
2022/11/22 06:05:04;;;;;;;1.63;1.30;;;5.80;98.20;;;;;;5015177;28;20472;-76
2022/11/22 06:07:31;;;;;;;1.70;1.40;;;5.80;98.20;;;;;;5005608;28;20899;-76
2022/11/22 06:09:58;;;;;;;1.60;1.30;;;5.80;98.20;;;;;;5014434;28;20494;-76
2022/11/22 06:12:25;;;;;;;1.70;1.40;;;5.80;98.20;;;;;;5003884;28;21064;-75
2022/11/22 06:14:51;;;;;;;1.60;1.30;;;5.80;98.20;;;;;;5023624;28;20944;-75
2022/11/22 06:17:18;;;;;;;1.70;1.40;;;5.80;98.20;;;;;;5004325;28;20883;-75
2022/11/22 06:19:46;;;;;;;1.70;1.40;;;5.80;98.20;;;;;;5024926;28;20490;-75
2022/11/22 06:22:13;;;;;;;1.67;1.37;;;5.90;98.20;;;;;;5007167;28;20491;-75
2022/11/22 06:24:41;;;;;;;1.60;1.30;;;5.90;98.20;;;;;;5006750;28;20469;-76
2022/11/22 06:27:08;;;;;;;1.67;1.30;;;6.00;98.20;;;;;;5012603;28;20505;-76
2022/11/22 06:29:35;;;;;;;1.60;1.30;;;6.00;98.20;;;;;;5016261;28;20474;-76
2022/11/22 06:32:02;;;;;;;1.63;1.30;;;6.10;98.20;;;;;;5003276;28;20483;-76
2022/11/22 06:34:28;;;;;;;1.63;1.30;;;6.10;98.20;;;;;;5008098;28;20470;-76
2022/11/22 06:36:56;;;;;;;1.60;1.30;;;6.20;98.20;;;;;;5000299;28;20479;-77
2022/11/22 06:39:23;;;;;;;1.60;1.30;;;6.20;98.20;;;;;;5011008;28;20829;-77
2022/11/22 06:41:50;;;;;;;1.60;1.30;;;6.20;98.20;;;;;;5011262;28;20491;-76
2022/11/22 06:44:17;;;;;;;1.60;1.40;;;6.30;98.20;;;;;;5023942;28;20463;-75
2022/11/22 06:46:44;;;;;;;1.60;1.30;;;6.30;98.20;;;;;;5009941;28;20645;-76
2022/11/22 06:49:10;;;;;;;1.60;1.30;;;6.30;98.20;;;;;;5011220;28;20469;-76
2022/11/22 06:51:37;;;;;;;4.27;3.97;;;6.30;98.20;;;;;;5002773;28;20482;-76
2022/11/22 06:54:05;;;;;;;1.60;1.30;;;6.30;98.20;;;;;;5025049;28;20459;-76
2022/11/22 06:56:36;;;;;;;1.67;1.30;;;6.30;98.20;;;;;;5002410;28;20494;-76
2022/11/22 06:59:05;;;;;;;1.67;1.30;;;6.30;98.20;;;;;;5019015;28;20466;-76
2022/11/22 07:01:32;;;;;;;1.60;1.30;;;6.30;98.20;;;;;;5008510;28;21313;-76
2022/11/22 07:04:00;;;;;;;1.70;1.40;;;6.30;98.20;;;;;;5006571;28;20984;-76
2022/11/22 07:06:29;;;;;;;1.60;1.30;;;6.40;98.20;;;;;;5011567;28;20479;-77
2022/11/22 07:08:56;;;;;;;1.60;1.30;;;6.40;98.20;;;;;;5016875;28;20468;-76
2022/11/22 07:11:26;;;;;;;1.60;1.20;;;6.50;98.20;;;;;;4999388;28;20489;-76
2022/11/22 07:13:54;;;;;;;1.70;1.50;;;6.50;98.20;;;;;;5012766;28;20470;-77
2022/11/22 07:16:22;;;;;;;1.60;1.30;;;6.50;98.20;;;;;;5014030;28;20534;-76
2022/11/22 07:18:49;;;;;;;1.60;1.20;;;6.50;98.20;;;;;;5023981;28;20463;-76
2022/11/22 07:21:18;;;;;;;1.60;1.30;;;6.50;98.20;;;;;;5013419;28;20487;-76
2022/11/22 07:23:46;;;;;;;1.60;1.30;;;6.50;98.20;;;;;;5008262;28;20471;-76
2022/11/22 07:26:14;;;;;;;1.70;1.43;;;6.50;98.20;;;;;;4997568;28;21017;-76
2022/11/22 07:28:43;;;;;;;1.60;1.30;;;6.60;98.20;;;;;;5018913;28;20560;-75
2022/11/22 07:31:12;;;;;;;1.63;1.37;;;6.60;98.20;;;;;;5014352;28;20497;-75
2022/11/22 07:33:39;;;;;;;1.60;1.30;;;6.60;98.20;;;;;;5024811;28;20470;-75
2022/11/22 07:36:08;;;;;;;1.60;1.30;;;6.60;98.20;;;;;;5012816;28;20468;-75
2022/11/22 07:38:35;;;;;;;1.60;1.40;;;6.60;98.20;;;;;;5017057;28;20554;-75
2022/11/22 07:41:03;;;;;;;1.60;1.30;;;6.60;98.20;;;;;;5006713;28;20504;-75
2022/11/22 07:43:30;;;;;;;1.60;1.40;;;6.60;98.20;;;;;;5007629;28;20464;-75
2022/11/22 07:46:00;;;;;;;1.63;1.30;;;6.70;98.20;;;;;;4998975;28;20468;-75
2022/11/22 07:48:27;;;;;;;1.60;1.30;;;6.70;98.20;;;;;;5012010;28;20976;-76
2022/11/22 07:50:54;;;;;;;1.67;1.30;;;6.80;98.20;;;;;;5007895;28;20481;-75
2022/11/22 07:53:20;;;;;;;1.70;1.40;;;6.80;98.20;;;;;;5006214;28;20464;-75
2022/11/22 07:55:47;;;;;;;1.60;1.30;;;6.80;98.20;;;;;;5017537;28;20471;-75
2022/11/22 07:58:14;;;;;;;1.60;1.30;;;6.80;98.20;;;;;;5008725;28;20993;-75
2022/11/22 08:00:41;;;;;;;1.60;1.30;;;6.90;98.20;;;;;;5007288;28;20491;-75
2022/11/22 08:03:09;;;;;;;1.60;1.20;;;6.90;98.20;;;;;;4999797;28;21016;-75
2022/11/22 08:05:36;;;;;;;1.60;1.30;;;6.90;98.20;;;;;;5021897;28;20505;-75
2022/11/22 08:08:02;;;;;;;1.60;1.30;;;6.90;98.20;;;;;;5004646;28;20483;-75
2022/11/22 08:10:29;;;;;;;1.67;1.30;;;6.90;98.20;;;;;;5017912;28;20514;-75
2022/11/22 08:12:59;;;;;;;1.60;1.30;;;6.90;98.20;;;;;;4999951;28;21009;-75
2022/11/22 08:15:26;;;;;;;1.63;1.30;;;7.00;98.20;;;;;;5011780;28;20973;-75
2022/11/22 08:17:53;;;;;;;1.63;1.30;;;7.00;98.20;;;;;;5006305;28;20479;-76
2022/11/22 08:20:21;;;;;;;1.60;1.30;;;7.00;98.20;;;;;;5016442;28;20483;-75
2022/11/22 08:22:48;;;;;;;1.60;1.30;;;7.10;98.20;;;;;;5005522;28;20484;-75
2022/11/22 08:25:14;;;;;;;1.60;1.20;;;7.10;98.20;;;;;;5026968;28;20470;-77
2022/11/22 08:27:42;;;;;;;1.60;1.23;;;7.20;98.20;;;;;;5008886;28;20923;-75
2022/11/22 08:30:10;;;;;;;1.70;1.37;;;7.20;98.20;;;;;;5010207;28;20686;-76
2022/11/22 08:32:37;;;;;;;1.60;1.20;;;7.40;98.20;;;;;;5014271;28;20483;-76
2022/11/22 08:35:05;;;;;;;1.67;1.30;;;7.40;98.20;;;;;;5028540;28;20467;-76
2022/11/22 08:37:33;;;;;;;1.70;1.40;;;7.50;98.20;;;;;;5005980;28;20492;-76
2022/11/22 08:40:00;;;;;;;1.60;1.30;;;7.60;98.20;;;;;;5013634;28;20475;-76
2022/11/22 08:42:26;;;;;;;1.60;1.20;;;7.60;98.20;;;;;;5005447;28;20488;-76
2022/11/22 08:44:54;;;;;;;1.60;1.20;;;7.60;98.20;;;;;;5007980;28;20478;-76
2022/11/22 08:47:21;;;;;;;1.60;1.23;;;7.70;98.20;;;;;;5009517;28;20483;-76
2022/11/22 08:49:47;;;;;;;1.63;1.30;;;7.70;98.20;;;;;;5014869;28;20487;-76
2022/11/22 08:52:14;;;;;;;1.60;1.20;;;7.70;98.20;;;;;;4999734;28;20488;-76
2022/11/22 08:54:43;;;;;;;1.60;1.30;;;7.80;98.20;;;;;;5025812;28;21058;-76
2022/11/22 08:57:09;;;;;;;1.70;1.40;;;7.80;98.20;;;;;;5008511;28;20866;-76
2022/11/22 08:59:36;;;;;;;1.60;1.20;;;7.80;98.20;;;;;;5020592;28;20506;-76
2022/11/22 09:02:03;;;;;;;1.67;1.40;;;7.90;98.20;;;;;;5009149;28;20482;-75
2022/11/22 09:04:30;;;;;;;1.60;1.20;;;7.90;98.20;;;;;;5012818;28;20997;-76
2022/11/22 09:06:59;;;;;;;1.60;1.20;;;7.90;98.20;;;;;;5000934;28;20476;-76
2022/11/22 09:09:25;;;;;;;1.60;1.20;;;7.80;98.20;;;;;;5011826;28;20467;-76
2022/11/22 09:11:54;;;;;;;1.60;1.20;;;7.70;98.20;;;;;;5012258;28;20475;-76
2022/11/22 09:14:20;;;;;;;1.60;1.10;;;7.70;98.20;;;;;;5027712;28;20463;-76
2022/11/22 09:16:47;;;;;;;1.60;1.20;;;7.70;98.20;;;;;;5013530;28;20822;-75
2022/11/22 09:19:14;;;;;;;1.60;1.20;;;7.60;98.20;;;;;;5009755;28;20463;-76
2022/11/22 09:21:41;;;;;;;1.60;1.20;;;7.50;98.20;;;;;;5004596;28;20513;-75
2022/11/22 09:24:07;;;;;;;1.60;1.23;;;7.50;98.20;;;;;;5008320;28;20489;-75
2022/11/22 09:26:35;;;;;;;1.60;1.30;;;7.50;98.20;;;;;;5000106;28;20500;-75
2022/11/22 09:29:03;;;;;;;1.60;1.23;;;7.50;98.20;;;;;;5017043;28;20528;-76
2022/11/22 09:31:32;;;;;;;1.60;1.30;;;7.50;98.20;;;;;;5003303;28;20488;-76
2022/11/22 09:33:58;;;;;;;1.60;1.20;;;7.50;98.20;;;;;;5008681;28;20463;-76
2022/11/22 09:36:26;;;;;;;1.60;1.20;;;7.50;98.20;;;;;;5001572;28;20881;-75
2022/11/22 09:38:53;;;;;;;1.60;1.20;;;7.50;98.20;;;;;;5012517;28;21017;-76
2022/11/22 09:41:42;;;;;;;1.63;1.30;;;7.50;98.20;;;;;;5000863;28;20488;-76
2022/11/22 09:44:17;;;;;;;1.60;1.30;;;7.60;98.20;;;;;;5023774;28;20891;-75
2022/11/22 09:46:51;;;;;;;1.60;1.20;;;7.60;98.20;;;;;;5004942;28;20475;-76
2022/11/22 09:49:27;;;;;;;1.60;1.20;;;7.60;98.20;;;;;;5022651;28;20828;-75
2022/11/22 09:52:01;;;;;;;1.60;1.20;;;7.70;98.20;;;;;;5009516;28;20482;-74
2022/11/22 09:54:34;;;;;;;1.60;1.20;;;7.70;98.20;;;;;;5025230;28;20471;-74
2022/11/22 09:57:04;;;;;;;1.60;1.30;;;7.80;98.20;;;;;;5011811;28;20491;-74
2022/11/22 09:59:35;;;;;;;1.60;1.30;;;7.80;98.20;;;;;;5017712;28;20464;-75
2022/11/22 10:02:06;;;;;;;1.60;1.20;;;7.90;98.20;;;;;;5001971;28;20851;-76
2022/11/22 10:04:37;;;;;;;1.60;1.20;;;8.00;98.20;;;;;;5009091;28;20545;-75
2022/11/22 10:07:11;;;;;;;1.60;1.20;;;8.00;98.20;;;;;;4999683;28;20484;-75
2022/11/22 10:09:43;;;;;;;1.60;1.20;;;8.10;98.20;;;;;;5009692;28;20460;-75
2022/11/22 10:12:16;;;;;;;1.60;1.20;;;8.20;98.20;;;;;;5001465;28;20727;-74
2022/11/22 10:14:50;;;;;;;1.60;1.20;;;8.20;98.20;;;;;;5008739;28;20526;-76
2022/11/22 10:17:25;;;;;;;1.60;1.30;;;8.20;98.20;;;;;;4998216;28;21035;-76
2022/11/22 10:19:59;;;;;;;1.60;1.20;;;8.20;98.20;;;;;;5013080;28;20859;-74
2022/11/22 10:22:29;;;;;;;1.60;1.30;;;8.20;98.20;;;;;;5001399;28;20487;-75
2022/11/22 10:24:58;;;;;;;1.63;1.20;;;8.30;98.20;;;;;;5007978;28;20495;-75
2022/11/22 10:27:31;;;;;;;1.60;1.20;;;8.30;98.20;;;;;;5004170;28;20479;-75
2022/11/22 10:30:02;;;;;;;1.60;1.20;;;8.40;98.20;;;;;;5010230;28;20491;-76
2022/11/22 10:32:37;;;;;;;2.23;2.03;;;8.40;98.20;;;;;;5001712;28;20577;-75
2022/11/22 10:35:36;;;;;;;1.67;1.30;;;8.50;98.20;;;;;;5008145;28;20840;-75
2022/11/22 10:38:14;;;;;;;1.60;1.30;;;8.60;98.20;;;;;;5003257;28;20478;-75
2022/11/22 10:40:50;;;;;;;1.60;1.20;;;8.60;98.20;;;;;;5017540;28;20487;-75
2022/11/22 10:43:28;;;;;;;1.60;1.10;;;8.70;98.20;;;;;;4986353;28;20495;-75
2022/11/22 10:46:06;;;;;;;1.60;1.20;;;8.70;98.20;;;;;;5000545;28;20468;-75
2022/11/22 10:48:41;;;;;;;1.60;1.20;;;8.80;98.20;;;;;;5024590;28;20495;-75
2022/11/22 10:51:17;;;;;;;1.60;1.30;;;8.80;98.20;;;;;;5000826;28;20483;-76
2022/11/22 10:53:54;;;;;;;1.60;1.17;;;8.80;98.20;;;;;;5015728;28;20979;-75
2022/11/22 10:56:27;;;;;;;1.60;1.20;;;8.80;98.20;;;;;;5012466;28;21036;-75
2022/11/22 10:59:16;;;;;;;1.60;1.20;;;8.90;98.20;;;;;;5012557;28;20466;-75
2022/11/22 11:01:52;;;;;;;1.60;1.20;;;8.90;98.20;;;;;;4999241;28;20881;-75
2022/11/22 11:04:20;;;;;;;1.60;1.20;;;8.90;98.20;;;;;;5008007;28;20463;-75
2022/11/22 11:06:52;;;;;;;1.60;1.17;;;8.90;98.20;;;;;;5010522;28;20484;-75
2022/11/22 11:09:23;;;;;;;1.60;1.10;;;8.90;98.20;;;;;;5012743;28;20456;-74
2022/11/22 11:11:51;;;;;;;1.60;1.10;;;9.00;98.20;;;;;;5006851;28;20746;-75
2022/11/22 11:14:27;;;;;;;1.60;1.10;;;9.00;98.20;;;;;;5020901;28;20467;-75
2022/11/22 11:16:56;;;;;;;1.60;1.10;;;9.10;98.20;;;;;;5004432;28;20547;-73
2022/11/22 11:19:25;;;;;;;1.60;1.20;;;9.20;98.20;;;;;;5008046;28;20973;-74
2022/11/22 11:21:59;;;;;;;1.60;1.13;;;9.20;98.20;;;;;;5008046;28;21028;-75
2022/11/22 11:24:29;;;;;;;1.60;1.10;;;9.30;98.20;;;;;;5008144;28;20888;-74
2022/11/22 11:26:58;;;;;;;1.60;1.20;;;9.30;98.20;;;;;;4999069;28;20471;-75
2022/11/22 11:29:33;;;;;;;1.60;1.20;;;9.30;98.20;;;;;;5008294;28;20456;-74
2022/11/22 11:32:13;;;;;;;1.80;1.40;;;9.40;98.20;;;;;;4998146;28;20537;-74
2022/11/22 11:34:52;;;;;;;1.60;1.20;;;9.50;98.20;;;;;;5012197;28;20460;-74
2022/11/22 11:37:24;;;;;;;1.60;1.20;;;9.60;98.20;;;;;;4995737;28;20510;-74
2022/11/22 11:39:51;;;;;;;1.60;1.10;;;9.70;98.20;;;;;;5015106;28;21061;-74
2022/11/22 11:42:28;;;;;;;1.60;1.10;;;9.80;98.20;;;;;;4997610;28;20618;-74
2022/11/22 11:44:55;;;;;;;1.60;1.10;;;9.90;98.20;;;;;;5007850;28;20491;-73
2022/11/22 11:47:34;;;;;;;1.60;1.10;;;10.00;98.20;;;;;;4998696;28;20490;-74
2022/11/22 11:50:01;;;;;;;1.60;1.10;;;10.00;98.20;;;;;;5019385;28;20477;-74
2022/11/22 11:52:30;;;;;;;1.60;1.00;;;10.00;98.20;;;;;;5009947;28;21014;-74
2022/11/22 11:54:59;;;;;;;1.60;1.10;;;10.00;98.20;;;;;;5013423;28;20842;-74
2022/11/22 11:57:29;;;;;;;1.60;1.10;;;10.00;98.20;;;;;;5003988;28;20486;-74
2022/11/22 11:59:58;;;;;;;1.60;1.10;;;10.00;98.20;;;;;;5022313;28;20482;-74
2022/11/22 12:02:32;;;;;;;1.60;1.10;;;9.90;98.20;;;;;;5014851;28;20483;-74
2022/11/22 12:05:02;;;;;;;1.60;1.20;;;9.90;98.20;;;;;;5023293;28;20476;-74
2022/11/22 12:07:39;;;;;;;1.60;1.10;;;9.90;98.20;;;;;;5006320;28;20868;-74
2022/11/22 12:10:29;;;;;;;1.57;1.10;;;9.90;98.20;;;;;;5024824;28;20500;-75
2022/11/22 12:13:00;;;;;;;1.60;1.10;;;9.90;98.20;;;;;;5005793;28;20577;-75
2022/11/22 12:15:33;;;;;;;1.60;1.20;;;9.90;98.20;;;;;;5018565;28;20525;-74
2022/11/22 12:18:10;;;;;;;1.60;1.20;;;9.90;98.20;;;;;;5010770;28;20502;-74
2022/11/22 12:20:46;;;;;;;1.60;1.10;;;9.80;98.20;;;;;;5026469;28;20479;-74
2022/11/22 12:23:20;;;;;;;1.60;1.20;;;9.90;98.20;;;;;;4983732;28;20485;-74
2022/11/22 12:25:48;;;;;;;1.60;1.10;;;9.90;98.20;;;;;;5022602;28;20980;-74
2022/11/22 12:28:18;;;;;;;1.60;1.07;;;10.00;98.20;;;;;;4985106;28;20494;-74
2022/11/22 12:30:49;;;;;;;1.60;1.20;;;10.00;98.20;;;;;;5009729;28;20545;-74
2022/11/22 12:33:20;;;;;;;1.60;1.10;;;9.90;98.20;;;;;;4997658;28;20476;-74
2022/11/22 12:35:53;;;;;;;1.60;1.10;;;9.90;98.20;;;;;;5016710;28;20474;-74
2022/11/22 12:38:23;;;;;;;1.60;1.10;;;9.90;98.20;;;;;;5012064;28;20542;-74
2022/11/22 12:40:54;;;;;;;1.60;1.10;;;9.80;98.20;;;;;;5002532;28;20541;-74
2022/11/22 12:43:23;;;;;;;1.60;1.10;;;9.90;98.20;;;;;;5007251;28;20522;-74
2022/11/22 12:45:54;;;;;;;1.60;1.10;;;9.90;98.20;;;;;;5015396;28;20459;-74
2022/11/22 12:48:26;;;;;;;1.60;1.20;;;9.80;98.20;;;;;;5008572;28;20483;-75
2022/11/22 12:50:58;;;;;;;1.60;1.20;;;9.80;98.20;;;;;;5003657;28;20498;-74
2022/11/22 12:53:31;;;;;;;1.60;1.10;;;9.80;98.20;;;;;;5014599;28;20478;-74
2022/11/22 12:56:02;;;;;;;1.60;1.10;;;9.80;98.20;;;;;;4999472;28;20937;-75
2022/11/22 12:58:37;;;;;;;1.60;1.17;;;9.80;98.20;;;;;;5007983;28;20459;-74
2022/11/22 13:01:12;;;;;;;1.60;1.10;;;9.90;98.20;;;;;;5001583;28;20498;-74
2022/11/22 13:03:46;;;;;;;1.60;1.10;;;9.90;98.20;;;;;;5008324;28;20929;-74
2022/11/22 13:06:19;;;;;;;1.57;1.10;;;9.90;98.20;;;;;;5002250;28;20487;-74
2022/11/22 13:08:56;;;;;;;1.60;1.10;;;9.80;98.20;;;;;;5012590;28;20488;-74
2022/11/22 13:11:28;;;;;;;1.60;1.20;;;9.80;98.20;;;;;;4999001;28;20480;-74
2022/11/22 13:14:00;;;;;;;1.60;1.10;;;9.70;98.20;;;;;;5013755;28;20557;-74
2022/11/22 13:16:26;;;;;;;1.60;1.40;;;9.70;98.20;;;;;;5012470;28;20471;-74
2022/11/22 13:18:59;;;;;;;1.50;1.10;;;9.70;98.20;;;;;;5022422;28;20466;-74
2022/11/22 13:21:35;;;;;;;1.60;1.10;;;9.70;98.20;;;;;;5003417;28;20480;-74
2022/11/22 13:24:22;;;;;;;1.50;1.10;;;9.60;98.20;;;;;;5024267;28;20471;-74